sensor_id;sensor_type;location;lat;lon;timestamp;temperature;humidity
28677;DHT22;15858;48.338;11.078;2023-08-06T00:00:28;15.20;99.90
28677;DHT22;15858;48.338;11.078;2023-08-06T00:02:55;15.20;99.90
28677;DHT22;15858;48.338;11.078;2023-08-06T00:05:22;15.20;99.90
28677;DHT22;15858;48.338;11.078;2023-08-06T00:07:49;15.20;99.90
28677;DHT22;15858;48.338;11.078;2023-08-06T00:10:17;15.20;99.90
28677;DHT22;15858;48.338;11.078;2023-08-06T00:12:44;15.30;99.90
28677;DHT22;15858;48.338;11.078;2023-08-06T00:15:11;15.20;99.90
28677;DHT22;15858;48.338;11.078;2023-08-06T00:17:38;15.10;99.90
28677;DHT22;15858;48.338;11.078;2023-08-06T00:20:05;15.10;99.90
28677;DHT22;15858;48.338;11.078;2023-08-06T00:22:33;15.20;99.90
28677;DHT22;15858;48.338;11.078;2023-08-06T00:25:00;15.20;99.90
28677;DHT22;15858;48.338;11.078;2023-08-06T00:27:27;15.20;99.90
28677;DHT22;15858;48.338;11.078;2023-08-06T00:29:54;15.10;99.90
28677;DHT22;15858;48.338;11.078;2023-08-06T00:32:20;15.10;99.90
28677;DHT22;15858;48.338;11.078;2023-08-06T00:34:47;15.10;99.90
28677;DHT22;15858;48.338;11.078;2023-08-06T00:37:14;15.10;99.90
28677;DHT22;15858;48.338;11.078;2023-08-06T00:39:40;14.90;99.90
28677;DHT22;15858;48.338;11.078;2023-08-06T00:42:07;14.90;99.90
28677;DHT22;15858;48.338;11.078;2023-08-06T00:44:34;14.90;99.90
28677;DHT22;15858;48.338;11.078;2023-08-06T00:47:01;14.90;99.90
28677;DHT22;15858;48.338;11.078;2023-08-06T00:49:28;14.80;99.90
28677;DHT22;15858;48.338;11.078;2023-08-06T00:51:55;14.80;99.90
28677;DHT22;15858;48.338;11.078;2023-08-06T00:54:23;14.90;99.90
28677;DHT22;15858;48.338;11.078;2023-08-06T00:56:51;14.90;99.90
28677;DHT22;15858;48.338;11.078;2023-08-06T00:59:18;14.90;99.90
28677;DHT22;15858;48.338;11.078;2023-08-06T01:01:45;14.90;99.90
28677;DHT22;15858;48.338;11.078;2023-08-06T01:04:12;14.90;99.90
28677;DHT22;15858;48.338;11.078;2023-08-06T01:06:48;14.80;99.90
28677;DHT22;15858;48.338;11.078;2023-08-06T01:15:10;14.70;99.90
28677;DHT22;15858;48.338;11.078;2023-08-06T01:17:38;14.70;99.90
28677;DHT22;15858;48.338;11.078;2023-08-06T01:20:05;14.60;99.90
28677;DHT22;15858;48.338;11.078;2023-08-06T01:22:32;14.70;99.90
28677;DHT22;15858;48.338;11.078;2023-08-06T01:24:59;14.70;99.90
28677;DHT22;15858;48.338;11.078;2023-08-06T01:27:37;14.60;99.90
28677;DHT22;15858;48.338;11.078;2023-08-06T01:30:47;14.70;99.90
28677;DHT22;15858;48.338;11.078;2023-08-06T01:32:59;14.50;99.90
28677;DHT22;15858;48.338;11.078;2023-08-06T01:35:27;14.50;99.90
28677;DHT22;15858;48.338;11.078;2023-08-06T01:37:55;14.50;99.90
28677;DHT22;15858;48.338;11.078;2023-08-06T01:40:22;14.60;99.90
28677;DHT22;15858;48.338;11.078;2023-08-06T01:42:48;14.60;99.90
28677;DHT22;15858;48.338;11.078;2023-08-06T01:45:15;14.60;99.90
28677;DHT22;15858;48.338;11.078;2023-08-06T01:47:41;14.60;99.90
28677;DHT22;15858;48.338;11.078;2023-08-06T01:50:08;14.60;99.90
28677;DHT22;15858;48.338;11.078;2023-08-06T01:52:35;14.60;99.90
28677;DHT22;15858;48.338;11.078;2023-08-06T01:55:02;14.60;99.90
28677;DHT22;15858;48.338;11.078;2023-08-06T01:57:29;14.60;99.90
28677;DHT22;15858;48.338;11.078;2023-08-06T01:59:55;14.60;99.90
28677;DHT22;15858;48.338;11.078;2023-08-06T02:02:22;14.60;99.90
28677;DHT22;15858;48.338;11.078;2023-08-06T02:04:48;14.60;99.90
28677;DHT22;15858;48.338;11.078;2023-08-06T02:07:15;14.60;99.90
28677;DHT22;15858;48.338;11.078;2023-08-06T02:09:42;14.60;99.90
28677;DHT22;15858;48.338;11.078;2023-08-06T02:12:08;14.50;99.90
28677;DHT22;15858;48.338;11.078;2023-08-06T02:14:35;14.50;99.90
28677;DHT22;15858;48.338;11.078;2023-08-06T02:17:02;14.50;99.90
28677;DHT22;15858;48.338;11.078;2023-08-06T02:19:28;14.60;99.90
28677;DHT22;15858;48.338;11.078;2023-08-06T02:21:55;14.60;99.90
28677;DHT22;15858;48.338;11.078;2023-08-06T02:24:22;14.50;99.90
28677;DHT22;15858;48.338;11.078;2023-08-06T02:26:48;14.40;99.90
28677;DHT22;15858;48.338;11.078;2023-08-06T02:29:15;14.40;99.90
28677;DHT22;15858;48.338;11.078;2023-08-06T02:31:42;14.50;99.90
28677;DHT22;15858;48.338;11.078;2023-08-06T02:34:08;14.40;99.90
28677;DHT22;15858;48.338;11.078;2023-08-06T02:36:36;14.40;99.90
28677;DHT22;15858;48.338;11.078;2023-08-06T02:39:02;14.40;99.90
28677;DHT22;15858;48.338;11.078;2023-08-06T02:41:29;14.30;99.90
28677;DHT22;15858;48.338;11.078;2023-08-06T02:43:55;14.30;99.90
28677;DHT22;15858;48.338;11.078;2023-08-06T02:46:22;14.20;99.90
28677;DHT22;15858;48.338;11.078;2023-08-06T02:48:49;14.20;99.90
28677;DHT22;15858;48.338;11.078;2023-08-06T02:51:15;14.20;99.90
28677;DHT22;15858;48.338;11.078;2023-08-06T02:53:42;14.20;99.90
28677;DHT22;15858;48.338;11.078;2023-08-06T02:56:09;14.20;99.90
28677;DHT22;15858;48.338;11.078;2023-08-06T02:58:35;14.10;99.90
28677;DHT22;15858;48.338;11.078;2023-08-06T03:01:06;14.20;99.90
28677;DHT22;15858;48.338;11.078;2023-08-06T03:03:33;14.10;99.90
28677;DHT22;15858;48.338;11.078;2023-08-06T03:06:00;14.10;99.90
28677;DHT22;15858;48.338;11.078;2023-08-06T03:08:28;14.10;99.90
28677;DHT22;15858;48.338;11.078;2023-08-06T03:10:55;14.20;99.90
28677;DHT22;15858;48.338;11.078;2023-08-06T03:13:21;14.10;99.90
28677;DHT22;15858;48.338;11.078;2023-08-06T03:15:55;14.10;99.90
28677;DHT22;15858;48.338;11.078;2023-08-06T03:18:22;14.00;99.90
28677;DHT22;15858;48.338;11.078;2023-08-06T03:20:49;14.00;99.90
28677;DHT22;15858;48.338;11.078;2023-08-06T03:23:16;14.00;99.90
28677;DHT22;15858;48.338;11.078;2023-08-06T03:25:43;13.90;99.90
28677;DHT22;15858;48.338;11.078;2023-08-06T03:28:09;14.00;99.90
28677;DHT22;15858;48.338;11.078;2023-08-06T03:30:36;14.00;99.90
28677;DHT22;15858;48.338;11.078;2023-08-06T03:33:03;13.90;99.90
28677;DHT22;15858;48.338;11.078;2023-08-06T03:35:30;13.90;99.90
28677;DHT22;15858;48.338;11.078;2023-08-06T03:37:56;13.90;99.90
28677;DHT22;15858;48.338;11.078;2023-08-06T03:40:23;13.90;99.90
28677;DHT22;15858;48.338;11.078;2023-08-06T03:42:50;13.90;99.90
28677;DHT22;15858;48.338;11.078;2023-08-06T03:45:16;13.90;99.90
28677;DHT22;15858;48.338;11.078;2023-08-06T03:47:43;13.90;99.90
28677;DHT22;15858;48.338;11.078;2023-08-06T03:50:10;13.80;99.90
28677;DHT22;15858;48.338;11.078;2023-08-06T03:52:36;13.80;99.90
28677;DHT22;15858;48.338;11.078;2023-08-06T03:55:03;13.80;99.90
28677;DHT22;15858;48.338;11.078;2023-08-06T03:57:30;13.80;99.90
28677;DHT22;15858;48.338;11.078;2023-08-06T03:59:57;13.80;99.90
28677;DHT22;15858;48.338;11.078;2023-08-06T04:02:23;13.80;99.90
28677;DHT22;15858;48.338;11.078;2023-08-06T04:04:50;13.80;99.90
28677;DHT22;15858;48.338;11.078;2023-08-06T04:07:16;13.80;99.90
28677;DHT22;15858;48.338;11.078;2023-08-06T04:10:04;13.80;99.90
28677;DHT22;15858;48.338;11.078;2023-08-06T04:12:31;13.90;99.90
28677;DHT22;15858;48.338;11.078;2023-08-06T04:14:58;13.90;99.90
28677;DHT22;15858;48.338;11.078;2023-08-06T04:17:25;13.90;99.90
28677;DHT22;15858;48.338;11.078;2023-08-06T04:19:53;13.90;99.90
28677;DHT22;15858;48.338;11.078;2023-08-06T04:22:20;13.90;99.90
28677;DHT22;15858;48.338;11.078;2023-08-06T04:24:47;13.90;99.90
28677;DHT22;15858;48.338;11.078;2023-08-06T04:27:15;13.90;99.90
28677;DHT22;15858;48.338;11.078;2023-08-06T04:29:42;13.90;99.90
28677;DHT22;15858;48.338;11.078;2023-08-06T04:32:10;13.90;99.90
28677;DHT22;15858;48.338;11.078;2023-08-06T04:34:37;13.90;99.90
28677;DHT22;15858;48.338;11.078;2023-08-06T04:37:04;13.90;99.90
28677;DHT22;15858;48.338;11.078;2023-08-06T04:39:31;13.90;99.90
28677;DHT22;15858;48.338;11.078;2023-08-06T04:41:57;14.00;99.90
28677;DHT22;15858;48.338;11.078;2023-08-06T04:44:24;14.00;99.90
28677;DHT22;15858;48.338;11.078;2023-08-06T04:46:51;14.00;99.90
28677;DHT22;15858;48.338;11.078;2023-08-06T04:49:20;14.00;99.90
28677;DHT22;15858;48.338;11.078;2023-08-06T04:51:46;14.00;99.90
28677;DHT22;15858;48.338;11.078;2023-08-06T04:54:13;14.10;99.90
28677;DHT22;15858;48.338;11.078;2023-08-06T04:56:40;14.10;99.90
28677;DHT22;15858;48.338;11.078;2023-08-06T04:59:06;14.10;99.90
28677;DHT22;15858;48.338;11.078;2023-08-06T05:01:33;14.00;99.90
28677;DHT22;15858;48.338;11.078;2023-08-06T05:04:00;14.10;99.90
28677;DHT22;15858;48.338;11.078;2023-08-06T05:06:26;14.10;99.90
28677;DHT22;15858;48.338;11.078;2023-08-06T05:08:53;14.10;99.90
28677;DHT22;15858;48.338;11.078;2023-08-06T05:11:20;14.10;99.90
28677;DHT22;15858;48.338;11.078;2023-08-06T05:13:46;14.10;99.90
28677;DHT22;15858;48.338;11.078;2023-08-06T05:16:13;14.00;99.90
28677;DHT22;15858;48.338;11.078;2023-08-06T05:18:40;14.00;99.90
28677;DHT22;15858;48.338;11.078;2023-08-06T05:21:06;14.00;99.90
28677;DHT22;15858;48.338;11.078;2023-08-06T05:23:33;14.10;99.90
28677;DHT22;15858;48.338;11.078;2023-08-06T05:26:00;14.10;99.90
28677;DHT22;15858;48.338;11.078;2023-08-06T05:28:26;14.00;99.90
28677;DHT22;15858;48.338;11.078;2023-08-06T05:30:53;14.00;99.90
28677;DHT22;15858;48.338;11.078;2023-08-06T05:33:19;14.00;99.90
28677;DHT22;15858;48.338;11.078;2023-08-06T05:35:46;14.10;99.90
28677;DHT22;15858;48.338;11.078;2023-08-06T05:38:13;14.20;99.90
28677;DHT22;15858;48.338;11.078;2023-08-06T05:40:39;14.10;99.90
28677;DHT22;15858;48.338;11.078;2023-08-06T05:43:06;14.20;99.90
28677;DHT22;15858;48.338;11.078;2023-08-06T05:45:32;14.30;99.90
28677;DHT22;15858;48.338;11.078;2023-08-06T05:47:59;14.30;99.90
28677;DHT22;15858;48.338;11.078;2023-08-06T05:50:26;14.30;99.90
28677;DHT22;15858;48.338;11.078;2023-08-06T05:52:52;14.40;99.90
28677;DHT22;15858;48.338;11.078;2023-08-06T05:55:22;14.40;99.90
28677;DHT22;15858;48.338;11.078;2023-08-06T05:57:49;14.40;99.90
28677;DHT22;15858;48.338;11.078;2023-08-06T06:00:15;14.30;99.90
28677;DHT22;15858;48.338;11.078;2023-08-06T06:02:42;14.40;99.90
28677;DHT22;15858;48.338;11.078;2023-08-06T06:05:09;14.40;99.90
28677;DHT22;15858;48.338;11.078;2023-08-06T06:07:35;14.50;99.90
28677;DHT22;15858;48.338;11.078;2023-08-06T06:10:02;14.50;99.90
28677;DHT22;15858;48.338;11.078;2023-08-06T06:12:29;14.60;99.90
28677;DHT22;15858;48.338;11.078;2023-08-06T06:14:56;14.60;99.90
28677;DHT22;15858;48.338;11.078;2023-08-06T06:17:22;14.60;99.90
28677;DHT22;15858;48.338;11.078;2023-08-06T06:19:49;14.70;99.90
28677;DHT22;15858;48.338;11.078;2023-08-06T06:22:15;14.70;99.90
28677;DHT22;15858;48.338;11.078;2023-08-06T06:24:42;14.70;99.90
28677;DHT22;15858;48.338;11.078;2023-08-06T06:27:09;14.70;99.90
28677;DHT22;15858;48.338;11.078;2023-08-06T06:29:35;14.80;99.90
28677;DHT22;15858;48.338;11.078;2023-08-06T06:32:02;14.90;99.90
28677;DHT22;15858;48.338;11.078;2023-08-06T06:34:29;15.00;99.90
28677;DHT22;15858;48.338;11.078;2023-08-06T06:36:55;15.00;99.90
28677;DHT22;15858;48.338;11.078;2023-08-06T06:39:22;15.20;99.90
28677;DHT22;15858;48.338;11.078;2023-08-06T06:41:48;15.40;99.90
28677;DHT22;15858;48.338;11.078;2023-08-06T06:44:15;15.50;99.90
28677;DHT22;15858;48.338;11.078;2023-08-06T06:46:42;15.70;99.90
28677;DHT22;15858;48.338;11.078;2023-08-06T06:49:08;15.80;99.90
28677;DHT22;15858;48.338;11.078;2023-08-06T06:51:35;15.80;99.90
28677;DHT22;15858;48.338;11.078;2023-08-06T06:54:04;15.60;99.90
28677;DHT22;15858;48.338;11.078;2023-08-06T06:56:30;15.50;99.90
28677;DHT22;15858;48.338;11.078;2023-08-06T06:58:57;15.30;99.90
28677;DHT22;15858;48.338;11.078;2023-08-06T07:01:24;15.20;99.90
28677;DHT22;15858;48.338;11.078;2023-08-06T07:03:50;15.10;99.90
28677;DHT22;15858;48.338;11.078;2023-08-06T07:06:17;15.00;99.90
28677;DHT22;15858;48.338;11.078;2023-08-06T07:08:44;14.90;99.90
28677;DHT22;15858;48.338;11.078;2023-08-06T07:11:11;14.80;99.90
28677;DHT22;15858;48.338;11.078;2023-08-06T07:13:38;14.80;99.90
28677;DHT22;15858;48.338;11.078;2023-08-06T07:16:04;14.80;99.90
28677;DHT22;15858;48.338;11.078;2023-08-06T07:18:31;14.80;99.90
28677;DHT22;15858;48.338;11.078;2023-08-06T07:20:57;14.70;99.90
28677;DHT22;15858;48.338;11.078;2023-08-06T07:23:25;14.80;99.90
28677;DHT22;15858;48.338;11.078;2023-08-06T07:25:52;14.80;99.90
28677;DHT22;15858;48.338;11.078;2023-08-06T07:28:19;14.90;99.90
28677;DHT22;15858;48.338;11.078;2023-08-06T07:30:46;14.90;99.90
28677;DHT22;15858;48.338;11.078;2023-08-06T07:33:12;15.00;99.90
28677;DHT22;15858;48.338;11.078;2023-08-06T07:35:39;15.00;99.90
28677;DHT22;15858;48.338;11.078;2023-08-06T07:38:06;15.10;99.90
28677;DHT22;15858;48.338;11.078;2023-08-06T07:40:32;15.10;99.90
28677;DHT22;15858;48.338;11.078;2023-08-06T07:43:01;15.20;99.90
28677;DHT22;15858;48.338;11.078;2023-08-06T07:45:28;15.30;99.90
28677;DHT22;15858;48.338;11.078;2023-08-06T07:47:54;15.30;99.90
28677;DHT22;15858;48.338;11.078;2023-08-06T07:50:21;15.30;99.90
28677;DHT22;15858;48.338;11.078;2023-08-06T07:52:48;15.30;99.90
28677;DHT22;15858;48.338;11.078;2023-08-06T07:55:14;15.40;99.90
28677;DHT22;15858;48.338;11.078;2023-08-06T07:57:41;15.40;99.90
28677;DHT22;15858;48.338;11.078;2023-08-06T08:00:08;15.50;99.90
28677;DHT22;15858;48.338;11.078;2023-08-06T08:02:35;15.50;99.90
28677;DHT22;15858;48.338;11.078;2023-08-06T08:05:01;15.60;99.90
28677;DHT22;15858;48.338;11.078;2023-08-06T08:07:28;15.60;99.90
28677;DHT22;15858;48.338;11.078;2023-08-06T08:09:55;15.70;99.90
28677;DHT22;15858;48.338;11.078;2023-08-06T08:12:22;15.70;99.90
28677;DHT22;15858;48.338;11.078;2023-08-06T08:14:48;15.80;99.90
28677;DHT22;15858;48.338;11.078;2023-08-06T08:17:15;15.80;99.90
28677;DHT22;15858;48.338;11.078;2023-08-06T08:19:41;15.90;99.90
28677;DHT22;15858;48.338;11.078;2023-08-06T08:22:08;15.80;99.90
28677;DHT22;15858;48.338;11.078;2023-08-06T08:24:35;15.80;99.90
28677;DHT22;15858;48.338;11.078;2023-08-06T08:27:01;15.70;99.90
28677;DHT22;15858;48.338;11.078;2023-08-06T08:29:28;15.80;99.90
28677;DHT22;15858;48.338;11.078;2023-08-06T08:31:55;15.70;99.90
28677;DHT22;15858;48.338;11.078;2023-08-06T08:34:22;15.70;99.90
28677;DHT22;15858;48.338;11.078;2023-08-06T08:36:49;15.70;99.90
28677;DHT22;15858;48.338;11.078;2023-08-06T08:39:15;15.70;99.90
28677;DHT22;15858;48.338;11.078;2023-08-06T08:41:42;15.60;99.90
28677;DHT22;15858;48.338;11.078;2023-08-06T08:44:09;15.70;99.90
28677;DHT22;15858;48.338;11.078;2023-08-06T08:46:38;15.90;99.90
28677;DHT22;15858;48.338;11.078;2023-08-06T08:49:04;16.00;99.90
28677;DHT22;15858;48.338;11.078;2023-08-06T08:51:33;16.10;99.90
28677;DHT22;15858;48.338;11.078;2023-08-06T08:54:05;16.20;99.90
28677;DHT22;15858;48.338;11.078;2023-08-06T08:56:33;16.30;99.90
28677;DHT22;15858;48.338;11.078;2023-08-06T08:59:00;16.40;99.90
28677;DHT22;15858;48.338;11.078;2023-08-06T09:01:27;16.30;99.90
28677;DHT22;15858;48.338;11.078;2023-08-06T09:03:56;16.20;99.90
28677;DHT22;15858;48.338;11.078;2023-08-06T09:06:25;15.90;99.90
28677;DHT22;15858;48.338;11.078;2023-08-06T09:09:02;15.70;99.90
28677;DHT22;15858;48.338;11.078;2023-08-06T09:11:35;15.60;99.90
28677;DHT22;15858;48.338;11.078;2023-08-06T09:14:03;15.50;99.90
28677;DHT22;15858;48.338;11.078;2023-08-06T09:16:30;15.40;99.90
28677;DHT22;15858;48.338;11.078;2023-08-06T09:19:09;15.40;99.90
28677;DHT22;15858;48.338;11.078;2023-08-06T09:21:40;15.30;99.90
28677;DHT22;15858;48.338;11.078;2023-08-06T09:24:16;15.30;99.90
28677;DHT22;15858;48.338;11.078;2023-08-06T09:26:44;15.40;99.90
28677;DHT22;15858;48.338;11.078;2023-08-06T09:29:11;15.30;99.90
28677;DHT22;15858;48.338;11.078;2023-08-06T09:34:23;15.30;99.90
28677;DHT22;15858;48.338;11.078;2023-08-06T09:36:51;15.20;99.90
28677;DHT22;15858;48.338;11.078;2023-08-06T09:39:26;15.30;99.90
28677;DHT22;15858;48.338;11.078;2023-08-06T09:41:57;15.10;99.90
28677;DHT22;15858;48.338;11.078;2023-08-06T09:44:25;15.10;99.90
28677;DHT22;15858;48.338;11.078;2023-08-06T09:46:54;15.20;99.90
28677;DHT22;15858;48.338;11.078;2023-08-06T09:49:26;15.20;99.90
28677;DHT22;15858;48.338;11.078;2023-08-06T09:51:54;15.30;99.90
28677;DHT22;15858;48.338;11.078;2023-08-06T09:54:24;15.40;99.90
28677;DHT22;15858;48.338;11.078;2023-08-06T09:56:54;15.40;99.90
28677;DHT22;15858;48.338;11.078;2023-08-06T09:59:25;15.50;99.90
28677;DHT22;15858;48.338;11.078;2023-08-06T10:01:54;15.40;99.90
28677;DHT22;15858;48.338;11.078;2023-08-06T10:04:21;15.40;99.90
28677;DHT22;15858;48.338;11.078;2023-08-06T10:06:51;15.50;99.90
28677;DHT22;15858;48.338;11.078;2023-08-06T10:09:18;15.70;99.90
28677;DHT22;15858;48.338;11.078;2023-08-06T10:11:52;15.70;99.90
28677;DHT22;15858;48.338;11.078;2023-08-06T10:14:26;15.90;99.90
28677;DHT22;15858;48.338;11.078;2023-08-06T10:16:57;15.70;99.90
28677;DHT22;15858;48.338;11.078;2023-08-06T10:19:25;15.90;99.90
28677;DHT22;15858;48.338;11.078;2023-08-06T10:22:12;15.90;99.90
28677;DHT22;15858;48.338;11.078;2023-08-06T10:24:58;16.00;99.90
28677;DHT22;15858;48.338;11.078;2023-08-06T10:27:40;15.90;99.90
28677;DHT22;15858;48.338;11.078;2023-08-06T10:32:54;16.00;99.90
28677;DHT22;15858;48.338;11.078;2023-08-06T10:38:21;15.90;99.90
28677;DHT22;15858;48.338;11.078;2023-08-06T10:43:33;15.70;99.90
28677;DHT22;15858;48.338;11.078;2023-08-06T10:46:01;15.70;99.90
28677;DHT22;15858;48.338;11.078;2023-08-06T10:51:01;15.50;99.90
28677;DHT22;15858;48.338;11.078;2023-08-06T10:53:27;15.60;99.90
28677;DHT22;15858;48.338;11.078;2023-08-06T10:55:59;15.60;99.90
28677;DHT22;15858;48.338;11.078;2023-08-06T10:58:25;15.50;99.90
28677;DHT22;15858;48.338;11.078;2023-08-06T11:00:52;15.50;99.90
28677;DHT22;15858;48.338;11.078;2023-08-06T11:03:19;15.50;99.90
28677;DHT22;15858;48.338;11.078;2023-08-06T11:05:49;15.40;99.90
28677;DHT22;15858;48.338;11.078;2023-08-06T11:08:26;15.50;99.90
28677;DHT22;15858;48.338;11.078;2023-08-06T11:10:53;15.60;99.90
28677;DHT22;15858;48.338;11.078;2023-08-06T11:13:29;15.70;99.90
28677;DHT22;15858;48.338;11.078;2023-08-06T11:15:55;15.70;99.90
28677;DHT22;15858;48.338;11.078;2023-08-06T11:18:22;15.70;99.90
28677;DHT22;15858;48.338;11.078;2023-08-06T11:20:49;15.70;99.90
28677;DHT22;15858;48.338;11.078;2023-08-06T11:23:15;15.60;99.90
28677;DHT22;15858;48.338;11.078;2023-08-06T11:25:45;15.70;99.90
28677;DHT22;15858;48.338;11.078;2023-08-06T11:28:12;15.80;99.90
28677;DHT22;15858;48.338;11.078;2023-08-06T11:30:39;15.90;99.90
28677;DHT22;15858;48.338;11.078;2023-08-06T11:33:07;15.90;99.90
28677;DHT22;15858;48.338;11.078;2023-08-06T11:35:37;16.00;99.90
28677;DHT22;15858;48.338;11.078;2023-08-06T11:38:04;16.30;99.90
28677;DHT22;15858;48.338;11.078;2023-08-06T11:40:35;16.50;99.90
28677;DHT22;15858;48.338;11.078;2023-08-06T11:43:02;16.40;99.90
28677;DHT22;15858;48.338;11.078;2023-08-06T11:45:28;16.30;99.90
28677;DHT22;15858;48.338;11.078;2023-08-06T11:47:55;16.40;99.90
28677;DHT22;15858;48.338;11.078;2023-08-06T11:50:23;16.50;99.90
28677;DHT22;15858;48.338;11.078;2023-08-06T11:52:57;16.80;99.90
28677;DHT22;15858;48.338;11.078;2023-08-06T11:55:25;16.80;99.90
28677;DHT22;15858;48.338;11.078;2023-08-06T11:57:52;17.10;99.90
28677;DHT22;15858;48.338;11.078;2023-08-06T12:00:18;17.20;99.90
28677;DHT22;15858;48.338;11.078;2023-08-06T12:02:46;17.20;99.90
28677;DHT22;15858;48.338;11.078;2023-08-06T12:05:17;17.10;99.90
28677;DHT22;15858;48.338;11.078;2023-08-06T12:07:45;16.90;99.90
28677;DHT22;15858;48.338;11.078;2023-08-06T12:10:13;16.90;99.90
28677;DHT22;15858;48.338;11.078;2023-08-06T12:12:40;16.80;99.90
28677;DHT22;15858;48.338;11.078;2023-08-06T12:15:08;16.50;99.90
28677;DHT22;15858;48.338;11.078;2023-08-06T12:17:35;16.40;99.90
28677;DHT22;15858;48.338;11.078;2023-08-06T12:20:03;16.30;99.90
28677;DHT22;15858;48.338;11.078;2023-08-06T12:22:30;16.30;99.90
28677;DHT22;15858;48.338;11.078;2023-08-06T12:24:56;16.40;99.90
28677;DHT22;15858;48.338;11.078;2023-08-06T12:27:23;16.40;99.90
28677;DHT22;15858;48.338;11.078;2023-08-06T12:29:50;16.50;99.90
28677;DHT22;15858;48.338;11.078;2023-08-06T12:32:16;16.80;99.90
28677;DHT22;15858;48.338;11.078;2023-08-06T12:34:43;16.60;99.90
28677;DHT22;15858;48.338;11.078;2023-08-06T12:37:19;16.40;99.90
28677;DHT22;15858;48.338;11.078;2023-08-06T12:39:45;16.10;99.90
28677;DHT22;15858;48.338;11.078;2023-08-06T12:42:12;15.90;99.90
28677;DHT22;15858;48.338;11.078;2023-08-06T12:44:39;15.60;99.90
28677;DHT22;15858;48.338;11.078;2023-08-06T12:47:07;15.50;99.90
28677;DHT22;15858;48.338;11.078;2023-08-06T12:49:33;15.40;99.90
28677;DHT22;15858;48.338;11.078;2023-08-06T12:52:00;15.40;99.90
28677;DHT22;15858;48.338;11.078;2023-08-06T12:54:27;15.20;99.90
28677;DHT22;15858;48.338;11.078;2023-08-06T12:56:54;15.20;99.90
28677;DHT22;15858;48.338;11.078;2023-08-06T12:59:22;15.20;99.90
28677;DHT22;15858;48.338;11.078;2023-08-06T13:01:49;15.30;99.90
28677;DHT22;15858;48.338;11.078;2023-08-06T13:04:16;15.40;99.90
28677;DHT22;15858;48.338;11.078;2023-08-06T13:06:48;15.40;99.90
28677;DHT22;15858;48.338;11.078;2023-08-06T13:09:16;15.60;99.90
28677;DHT22;15858;48.338;11.078;2023-08-06T13:11:42;15.60;99.90
28677;DHT22;15858;48.338;11.078;2023-08-06T13:14:10;15.40;99.90
28677;DHT22;15858;48.338;11.078;2023-08-06T13:16:39;15.20;99.90
28677;DHT22;15858;48.338;11.078;2023-08-06T13:19:06;15.20;99.90
28677;DHT22;15858;48.338;11.078;2023-08-06T13:24:14;15.10;99.90
28677;DHT22;15858;48.338;11.078;2023-08-06T13:26:41;15.00;99.90
28677;DHT22;15858;48.338;11.078;2023-08-06T13:29:08;15.00;99.90
28677;DHT22;15858;48.338;11.078;2023-08-06T13:31:35;15.00;99.90
28677;DHT22;15858;48.338;11.078;2023-08-06T13:34:01;14.90;99.90
28677;DHT22;15858;48.338;11.078;2023-08-06T13:36:29;14.90;99.90
28677;DHT22;15858;48.338;11.078;2023-08-06T13:38:56;14.80;99.90
28677;DHT22;15858;48.338;11.078;2023-08-06T13:41:23;14.80;99.90
28677;DHT22;15858;48.338;11.078;2023-08-06T13:43:50;14.80;99.90
28677;DHT22;15858;48.338;11.078;2023-08-06T13:46:18;14.80;99.90
28677;DHT22;15858;48.338;11.078;2023-08-06T13:48:47;14.80;99.90
28677;DHT22;15858;48.338;11.078;2023-08-06T13:51:14;14.90;99.90
28677;DHT22;15858;48.338;11.078;2023-08-06T13:53:41;14.90;99.90
28677;DHT22;15858;48.338;11.078;2023-08-06T13:56:09;14.90;99.90
28677;DHT22;15858;48.338;11.078;2023-08-06T13:58:36;14.90;99.90
28677;DHT22;15858;48.338;11.078;2023-08-06T14:01:03;14.90;99.90
28677;DHT22;15858;48.338;11.078;2023-08-06T14:03:29;14.70;99.90
28677;DHT22;15858;48.338;11.078;2023-08-06T14:05:56;14.70;99.90
28677;DHT22;15858;48.338;11.078;2023-08-06T14:08:23;14.60;99.90
28677;DHT22;15858;48.338;11.078;2023-08-06T14:10:53;14.60;99.90
28677;DHT22;15858;48.338;11.078;2023-08-06T14:13:22;14.60;99.90
28677;DHT22;15858;48.338;11.078;2023-08-06T14:15:49;14.70;99.90
28677;DHT22;15858;48.338;11.078;2023-08-06T14:18:16;14.70;99.90
28677;DHT22;15858;48.338;11.078;2023-08-06T14:20:43;14.80;99.90
28677;DHT22;15858;48.338;11.078;2023-08-06T14:23:10;14.70;99.90
28677;DHT22;15858;48.338;11.078;2023-08-06T14:25:38;14.70;99.90
28677;DHT22;15858;48.338;11.078;2023-08-06T14:28:05;14.70;99.90
28677;DHT22;15858;48.338;11.078;2023-08-06T14:30:32;14.60;99.90
28677;DHT22;15858;48.338;11.078;2023-08-06T14:32:59;14.50;99.90
28677;DHT22;15858;48.338;11.078;2023-08-06T14:35:42;14.40;99.90
28677;DHT22;15858;48.338;11.078;2023-08-06T14:38:09;14.30;99.90
28677;DHT22;15858;48.338;11.078;2023-08-06T14:40:35;14.40;99.90
28677;DHT22;15858;48.338;11.078;2023-08-06T14:43:02;14.30;99.90
28677;DHT22;15858;48.338;11.078;2023-08-06T14:45:28;14.40;99.90
28677;DHT22;15858;48.338;11.078;2023-08-06T14:47:55;14.40;99.90
28677;DHT22;15858;48.338;11.078;2023-08-06T14:50:22;14.40;99.90
28677;DHT22;15858;48.338;11.078;2023-08-06T14:52:49;14.40;99.90
28677;DHT22;15858;48.338;11.078;2023-08-06T14:55:25;14.40;99.90
28677;DHT22;15858;48.338;11.078;2023-08-06T14:57:52;14.40;99.90
28677;DHT22;15858;48.338;11.078;2023-08-06T15:00:19;14.40;99.90
28677;DHT22;15858;48.338;11.078;2023-08-06T15:02:46;14.40;99.90
28677;DHT22;15858;48.338;11.078;2023-08-06T15:05:14;14.40;99.90
28677;DHT22;15858;48.338;11.078;2023-08-06T15:07:40;14.40;99.90
28677;DHT22;15858;48.338;11.078;2023-08-06T15:10:07;14.40;99.90
28677;DHT22;15858;48.338;11.078;2023-08-06T15:12:53;14.50;99.90
28677;DHT22;15858;48.338;11.078;2023-08-06T15:15:19;14.50;99.90
28677;DHT22;15858;48.338;11.078;2023-08-06T15:17:46;14.50;99.90
28677;DHT22;15858;48.338;11.078;2023-08-06T15:20:13;14.50;99.90
28677;DHT22;15858;48.338;11.078;2023-08-06T15:22:40;14.50;99.90
28677;DHT22;15858;48.338;11.078;2023-08-06T15:25:07;14.50;99.90
28677;DHT22;15858;48.338;11.078;2023-08-06T15:27:33;14.60;99.90
28677;DHT22;15858;48.338;11.078;2023-08-06T15:30:00;14.60;99.90
28677;DHT22;15858;48.338;11.078;2023-08-06T15:32:27;14.60;99.90
28677;DHT22;15858;48.338;11.078;2023-08-06T15:34:54;14.60;99.90
28677;DHT22;15858;48.338;11.078;2023-08-06T15:37:21;14.50;99.90
28677;DHT22;15858;48.338;11.078;2023-08-06T15:39:48;14.60;99.90